Christmas Island Airport
YPXM : now visible

Airfield :











YOU CAN JOIN US ON...

 
LOGIN :

Register | Disclaimer

   EN    FR    IT 

 









Legend :    VFR   Marginal VFR   IFR   Intensive IFR   Very Intensive IFR
Visi :
Ceiling :
>= 8 km
>= 3000ft
5 to 8 km
1000 to 3000 ft
1500m to 5 km
500 to 1000 ft
800 to 1500m
200 to 500 ft
< 800m
< 200 ft
Symbols :   Thunderstorms  Fog  Heavy snow  Heavy precipitations  Wind > 20 kt






- Airport Elevation : 916 ft
- IATA code : XCH


YPXM - Christmas Island

CURRENT METAR :
  • 310800Z AUTO 10005KT 9999 -SHRA SCT004 BKN009 OVC093 23/23 Q1014

EXPIRED METARs :
  • 310730Z AUTO 07007KT 9999 -RA BKN004 OVC009 23/23 Q1014
  • 310721Z AUTO 07008KT 9999 -RA BKN002 BKN005 OVC009 23/23 Q1014 RERA
  • 310700Z AUTO 06008KT 0400 -RA OVC001 23/23 Q1014 RERA RF00.0/045.2
  • 310630Z AUTO 07005KT 9000 RA SCT001 BKN012 BKN033 23/22 Q1014
  • 310600Z AUTO 10007KT 070V130 2400 RA OVC001 OVC006 24/23 Q1015
  • 310530Z AUTO 12010KT 0150 RA OVC001 24/23 Q1015 RF01.8/034.0

TAF AMD TAF YPXM
Valid from the 31 at 05:00 until the 01 at 06:00 UTC


310514Z 3105/0106 13014KT 9999 -SHRA BKN010
TEMPO 3105/3108 VRB20G30KT 0500 TSRA OVC001 SCT020CB
TEMPO 3108/0106 1000 SHRA BKN003
PROB30
TEMPO 3108/0106 VRB20G30KT 0500 TSRA OVC001 SCT020CB
WIIF FIR / Asia



MET'MAP, your aeronautical weather chart ! - Copyright ORBIFLY December 2007 - Disclaimer

ORBIFLY MET'MAP TEAM :

Programming & Development : Alexandra Zaïnal
Concept & original design : Baudouin d'Aumeries
Assistance for programming : Marc-Olivier Méhu
Technical & hardware support : Manuel Goepfert

Contact : metmap@orbifly.com




SOURCES & CREDITS :

   NOAA       Earth
Advisory